Download Dataset
 Help
1705 days total. Displaying Days 1 through 30    Note: Data are provisional, have not been reviewed, and are subject to revision. Highlighted rows indicate that records have been updated within day. Click to expand row for more information.
Day Update(s) Type Air Temp
Mean ℃
Wind Speed
Mean m/s
Relative Humidity
min, max %
Precipitation
Total mm
Air Pressure
Mean kPa
PAR
Total mol m-2
2020-06-06 (72)  0 C 19.12 1.37 38.36 , 99.95 0 98.79 78.01
2020-06-05 (96)  0 C 20.51 1.82 24.6 , 99.96 0.51 98.2 74.58
2020-06-04 (96)  0 C 21.52 1.15 35.74 , 99.96 0 97.73 66.19
2020-06-03 (96)  0 C 20.73 1.14 30.13 , 99.97 0 97.97 65.31
2020-06-02 (96)  0 C 24.19 1.37 29.96 , 99.96 11.94 97.87 46.66
2020-06-01 (96)  0 C 24.25 3.3 40.43 , 87.98 0 98.08 63.66
2020-05-31 (96)  0 C 16.75 1.61 29.82 , 99.93 0 99.23 72.29
2020-05-30 (96)  0 C 13.6 1.39 23.61 , 99.93 0 99.33 72.51
2020-05-29 (96)  0 C 14.24 2.05 47.57 , 99.94 0 98.84 49.93
2020-05-28 (96)  0 C 19.79 2.29 23.53 , 99.96 0.25 98.27 59.99
2020-05-27 (96)  0 C 18.8 1.19 81.35 , 99.97 5.84 98.12 25.66
2020-05-26 (96)  0 C 21.39 1.87 62.09 , 99.97 37.34 97.94 32.12
2020-05-25 (96)  0 C 20.8 1.1 57.64 , 99.97 1.27 98.02 35.8
2020-05-24 (96)  0 C 19.44 1.34 58.08 , 99.97 0.25 97.94 32.22
2020-05-23 (96)  0 C 17.24 1.28 75.94 , 99.96 5.84 98.09 21.52
2020-05-22 (96)  0 C 16.11 1.58 60.85 , 97.6 0 98.4 18.21
2020-05-21 (96)  0 C 16.06 2.26 63.75 , 99.95 0 98.66 19.25
2020-05-20 (96)  0 C 19.16 2.82 41.91 , 89.65 0 98.81 52.92
2020-05-19 (96)  0 C 16.02 2.33 57.3 , 88.15 0 98.73 44.92
2020-05-18 (96)  0 C 14.24 2.8 60.35 , 94.29 0 98.49 24
2020-05-17 (96)  0 C 10.34 3.37 97.88 , 99.94 80.77 98.27 5.85
2020-05-16 (96)  0 C 13.65 2.12 47.62 , 99.94 8.38 98.69 27.46
2020-05-15 (96)  0 C 13.8 1.61 33.82 , 94.04 0 98.38 58.2
2020-05-14 (96)  0 C 15.61 1.94 38.79 , 99.95 0.25 97.85 39.11
2020-05-13 (96)  0 C 11.36 3.09 32.09 , 99.94 0.76 98.49 13.8
2020-05-12 (96)  0 C 6.38 1.05 15.46 , 99.86 0 99.13 56.81
2020-05-11 (96)  0 C 7.16 2.04 20.82 , 87.37 0 99.19 56.6
2020-05-10 (96)  0 C 5.77 2.41 44.59 , 99.91 0.51 98.97 20.17
2020-05-09 (96)  0 C 5.21 1.85 25.52 , 99.93 3.3 98.65 27.23
2020-05-08 (96)  0 C 4.32 2.32 23.63 , 87.46 0 99.09 55.71



Note: Data are provisional, have not been reviewed, and are subject to revision.

Suggested Citation: Long-Term Agroecosystem Research (LTAR), Agricultural Research Service, U.S. Department of Agriculture, LTAR Common Meteorological Data, , accessed .